sensor_id;sensor_type;location;lat;lon;timestamp;pressure;altitude;pressure_sealevel;temperature;humidity
32789;BME280;19141;48.980;8.410;2023-05-19T04:22:33;100790.69;;;9.08;87.34
32789;BME280;19141;48.980;8.410;2023-05-19T04:24:58;100797.50;;;9.11;87.06
32789;BME280;19141;48.980;8.410;2023-05-19T04:27:25;100793.56;;;9.15;86.72
32789;BME280;19141;48.980;8.410;2023-05-19T04:29:52;100788.78;;;9.18;86.90
32789;BME280;19141;48.980;8.410;2023-05-19T04:32:19;100786.50;;;9.23;86.40
32789;BME280;19141;48.980;8.410;2023-05-19T04:34:44;100794.09;;;9.18;86.41
32789;BME280;19141;48.980;8.410;2023-05-19T04:37:13;100797.59;;;9.19;87.10
32789;BME280;19141;48.980;8.410;2023-05-19T04:39:41;100804.59;;;9.20;86.66
32789;BME280;19141;48.980;8.410;2023-05-19T04:42:11;100804.50;;;9.30;86.44
32789;BME280;19141;48.980;8.410;2023-05-19T04:44:38;100794.44;;;9.33;86.15
32789;BME280;19141;48.980;8.410;2023-05-19T04:47:06;100798.16;;;9.40;86.15
32789;BME280;19141;48.980;8.410;2023-05-19T04:49:33;100806.63;;;9.44;86.09
32789;BME280;19141;48.980;8.410;2023-05-19T04:52:08;100807.84;;;9.49;85.65
32789;BME280;19141;48.980;8.410;2023-05-19T04:54:38;100808.31;;;9.45;86.32
32789;BME280;19141;48.980;8.410;2023-05-19T04:57:04;100804.34;;;9.49;86.45
32789;BME280;19141;48.980;8.410;2023-05-19T04:59:33;100810.00;;;9.46;86.13
32789;BME280;19141;48.980;8.410;2023-05-19T05:01:58;100805.03;;;9.51;85.80
32789;BME280;19141;48.980;8.410;2023-05-19T05:04:26;100805.03;;;9.51;85.77
32789;BME280;19141;48.980;8.410;2023-05-19T05:06:52;100802.38;;;9.51;85.84
32789;BME280;19141;48.980;8.410;2023-05-19T05:09:19;100806.13;;;9.40;86.10
32789;BME280;19141;48.980;8.410;2023-05-19T05:11:45;100811.88;;;9.54;85.78
32789;BME280;19141;48.980;8.410;2023-05-19T05:14:11;100812.34;;;9.67;84.85
32789;BME280;19141;48.980;8.410;2023-05-19T05:16:37;100812.56;;;9.73;84.53
32789;BME280;19141;48.980;8.410;2023-05-19T05:19:04;100805.97;;;9.60;85.32
32789;BME280;19141;48.980;8.410;2023-05-19T05:21:30;100808.75;;;9.76;84.86
32789;BME280;19141;48.980;8.410;2023-05-19T05:23:57;100810.94;;;9.81;84.73
32789;BME280;19141;48.980;8.410;2023-05-19T05:26:29;100810.13;;;9.80;84.75
32789;BME280;19141;48.980;8.410;2023-05-19T05:28:55;100811.63;;;9.65;85.03
32789;BME280;19141;48.980;8.410;2023-05-19T05:31:20;100819.00;;;9.71;84.85
32789;BME280;19141;48.980;8.410;2023-05-19T05:33:46;100814.84;;;9.68;84.41
32789;BME280;19141;48.980;8.410;2023-05-19T05:36:13;100809.34;;;9.70;84.98
32789;BME280;19141;48.980;8.410;2023-05-19T05:38:38;100812.94;;;9.61;85.60
32789;BME280;19141;48.980;8.410;2023-05-19T05:41:04;100813.69;;;9.71;84.74
32789;BME280;19141;48.980;8.410;2023-05-19T05:43:31;100810.75;;;9.56;85.95
32789;BME280;19141;48.980;8.410;2023-05-19T05:45:59;100807.84;;;9.67;85.54
32789;BME280;19141;48.980;8.410;2023-05-19T05:48:25;100807.06;;;9.75;85.35
32789;BME280;19141;48.980;8.410;2023-05-19T05:50:52;100809.94;;;9.82;84.88
32789;BME280;19141;48.980;8.410;2023-05-19T05:53:24;100802.50;;;9.85;84.70
32789;BME280;19141;48.980;8.410;2023-05-19T05:55:52;100796.81;;;9.80;84.26
32789;BME280;19141;48.980;8.410;2023-05-19T05:58:20;100805.06;;;9.95;84.17
32789;BME280;19141;48.980;8.410;2023-05-19T06:00:47;100809.31;;;10.05;84.49
32789;BME280;19141;48.980;8.410;2023-05-19T06:03:13;100804.56;;;10.17;83.91
32789;BME280;19141;48.980;8.410;2023-05-19T06:05:41;100801.41;;;10.22;83.72
32789;BME280;19141;48.980;8.410;2023-05-19T06:08:08;100805.00;;;10.30;82.47
32789;BME280;19141;48.980;8.410;2023-05-19T06:10:34;100802.25;;;10.48;81.87
32789;BME280;19141;48.980;8.410;2023-05-19T06:13:01;100801.94;;;10.51;81.52
32789;BME280;19141;48.980;8.410;2023-05-19T06:15:27;100797.66;;;10.58;80.39
32789;BME280;19141;48.980;8.410;2023-05-19T06:18:10;100803.63;;;10.60;79.92
32789;BME280;19141;48.980;8.410;2023-05-19T06:20:38;100792.53;;;10.73;79.86
32789;BME280;19141;48.980;8.410;2023-05-19T06:23:03;100788.06;;;10.82;78.00
32789;BME280;19141;48.980;8.410;2023-05-19T06:25:28;100790.63;;;11.00;78.32
32789;BME280;19141;48.980;8.410;2023-05-19T06:27:55;100796.47;;;11.03;76.43
32789;BME280;19141;48.980;8.410;2023-05-19T06:30:22;100784.78;;;10.96;76.43
32789;BME280;19141;48.980;8.410;2023-05-19T06:33:05;100796.66;;;11.18;75.43
32789;BME280;19141;48.980;8.410;2023-05-19T06:35:31;100784.34;;;11.17;76.17
32789;BME280;19141;48.980;8.410;2023-05-19T06:37:57;100789.31;;;11.20;76.09
32789;BME280;19141;48.980;8.410;2023-05-19T06:40:22;100796.34;;;11.29;76.97
32789;BME280;19141;48.980;8.410;2023-05-19T06:42:48;100797.53;;;11.43;76.62
32789;BME280;19141;48.980;8.410;2023-05-19T06:45:34;100800.56;;;11.48;75.14
32789;BME280;19141;48.980;8.410;2023-05-19T06:48:02;100804.88;;;11.65;74.63
32789;BME280;19141;48.980;8.410;2023-05-19T06:50:28;100805.22;;;11.79;72.38
32789;BME280;19141;48.980;8.410;2023-05-19T06:52:53;100796.75;;;11.83;71.92
32789;BME280;19141;48.980;8.410;2023-05-19T06:55:19;100801.06;;;11.84;72.46
32789;BME280;19141;48.980;8.410;2023-05-19T06:57:47;100789.56;;;12.00;73.47
32789;BME280;19141;48.980;8.410;2023-05-19T07:00:13;100782.84;;;12.12;74.04
32789;BME280;19141;48.980;8.410;2023-05-19T07:02:43;100800.69;;;12.12;70.82
32789;BME280;19141;48.980;8.410;2023-05-19T07:05:09;100794.31;;;12.29;69.93
32789;BME280;19141;48.980;8.410;2023-05-19T07:07:35;100790.84;;;12.20;69.70
32789;BME280;19141;48.980;8.410;2023-05-19T07:10:01;100781.00;;;12.21;70.14
32789;BME280;19141;48.980;8.410;2023-05-19T07:12:28;100783.75;;;12.44;69.16
32789;BME280;19141;48.980;8.410;2023-05-19T07:14:55;100783.03;;;12.58;70.12
32789;BME280;19141;48.980;8.410;2023-05-19T07:17:21;100784.50;;;12.69;68.09
32789;BME280;19141;48.980;8.410;2023-05-19T07:19:47;100780.28;;;12.74;68.33
32789;BME280;19141;48.980;8.410;2023-05-19T07:22:13;100783.97;;;12.73;67.92
32789;BME280;19141;48.980;8.410;2023-05-19T07:24:39;100776.44;;;12.77;68.59
32789;BME280;19141;48.980;8.410;2023-05-19T07:27:04;100780.19;;;12.91;68.18
32789;BME280;19141;48.980;8.410;2023-05-19T07:29:30;100771.47;;;12.97;67.09
32789;BME280;19141;48.980;8.410;2023-05-19T07:31:55;100773.41;;;13.11;66.72
32789;BME280;19141;48.980;8.410;2023-05-19T07:34:24;100771.03;;;13.16;67.00
32789;BME280;19141;48.980;8.410;2023-05-19T07:36:50;100765.81;;;13.23;67.26
32789;BME280;19141;48.980;8.410;2023-05-19T07:39:18;100764.41;;;13.35;65.77
32789;BME280;19141;48.980;8.410;2023-05-19T07:41:44;100759.13;;;13.50;66.55
32789;BME280;19141;48.980;8.410;2023-05-19T07:44:09;100761.34;;;13.61;66.86
32789;BME280;19141;48.980;8.410;2023-05-19T07:46:35;100760.72;;;13.59;65.87
32789;BME280;19141;48.980;8.410;2023-05-19T07:49:02;100767.13;;;13.88;63.91
32789;BME280;19141;48.980;8.410;2023-05-19T07:51:27;100761.63;;;13.89;64.08
32789;BME280;19141;48.980;8.410;2023-05-19T07:53:53;100747.84;;;13.92;64.17
32789;BME280;19141;48.980;8.410;2023-05-19T07:56:18;100760.31;;;14.00;64.31
32789;BME280;19141;48.980;8.410;2023-05-19T07:58:43;100757.41;;;14.24;62.75
32789;BME280;19141;48.980;8.410;2023-05-19T08:01:09;100759.53;;;14.29;62.56
32789;BME280;19141;48.980;8.410;2023-05-19T08:03:34;100751.47;;;14.14;62.44
32789;BME280;19141;48.980;8.410;2023-05-19T08:06:00;100737.91;;;14.30;63.57
32789;BME280;19141;48.980;8.410;2023-05-19T08:08:25;100747.97;;;14.58;62.33
32789;BME280;19141;48.980;8.410;2023-05-19T08:10:51;100746.34;;;14.78;61.71
32789;BME280;19141;48.980;8.410;2023-05-19T08:13:16;100741.16;;;14.91;60.50
32789;BME280;19141;48.980;8.410;2023-05-19T08:15:41;100739.75;;;14.96;61.66
32789;BME280;19141;48.980;8.410;2023-05-19T08:18:07;100726.53;;;15.15;59.46
32789;BME280;19141;48.980;8.410;2023-05-19T08:20:32;100731.91;;;15.15;59.62
32789;BME280;19141;48.980;8.410;2023-05-19T08:22:58;100725.28;;;15.33;59.48
32789;BME280;19141;48.980;8.410;2023-05-19T08:25:23;100730.56;;;15.47;58.34
32789;BME280;19141;48.980;8.410;2023-05-19T08:27:49;100727.44;;;15.65;58.04
32789;BME280;19141;48.980;8.410;2023-05-19T08:30:14;100731.31;;;15.63;57.19
32789;BME280;19141;48.980;8.410;2023-05-19T08:32:40;100725.03;;;15.28;57.44
32789;BME280;19141;48.980;8.410;2023-05-19T08:35:06;100710.75;;;15.48;57.56
32789;BME280;19141;48.980;8.410;2023-05-19T08:37:31;100706.78;;;15.66;56.30
32789;BME280;19141;48.980;8.410;2023-05-19T08:39:57;100711.84;;;15.82;56.27
32789;BME280;19141;48.980;8.410;2023-05-19T08:42:23;100720.16;;;15.87;57.63
32789;BME280;19141;48.980;8.410;2023-05-19T08:44:48;100714.47;;;16.04;56.87
32789;BME280;19141;48.980;8.410;2023-05-19T08:47:14;100715.19;;;16.19;56.39
32789;BME280;19141;48.980;8.410;2023-05-19T08:49:44;100713.19;;;16.34;55.09
32789;BME280;19141;48.980;8.410;2023-05-19T08:52:18;100717.97;;;16.39;54.79
32789;BME280;19141;48.980;8.410;2023-05-19T08:55:10;100710.22;;;16.64;53.85
32789;BME280;19141;48.980;8.410;2023-05-19T08:57:38;100713.00;;;16.84;53.96
32789;BME280;19141;48.980;8.410;2023-05-19T09:00:05;100708.69;;;16.89;53.22
32789;BME280;19141;48.980;8.410;2023-05-19T09:02:37;100708.28;;;17.05;52.02
32789;BME280;19141;48.980;8.410;2023-05-19T09:05:04;100688.81;;;16.97;51.54
32789;BME280;19141;48.980;8.410;2023-05-19T09:07:30;100696.72;;;17.18;50.77
32789;BME280;19141;48.980;8.410;2023-05-19T09:09:59;100698.16;;;17.34;50.14
32789;BME280;19141;48.980;8.410;2023-05-19T09:12:25;100699.19;;;17.53;50.52
32789;BME280;19141;48.980;8.410;2023-05-19T09:14:51;100693.81;;;17.53;49.35
32789;BME280;19141;48.980;8.410;2023-05-19T09:17:17;100698.34;;;17.92;48.50
32789;BME280;19141;48.980;8.410;2023-05-19T09:19:46;100689.66;;;17.90;47.20
32789;BME280;19141;48.980;8.410;2023-05-19T09:22:17;100692.00;;;18.38;45.74
32789;BME280;19141;48.980;8.410;2023-05-19T09:24:46;100691.63;;;18.34;46.07
32789;BME280;19141;48.980;8.410;2023-05-19T09:27:20;100682.44;;;18.42;45.98
32789;BME280;19141;48.980;8.410;2023-05-19T09:29:47;100678.66;;;17.92;45.57
32789;BME280;19141;48.980;8.410;2023-05-19T09:32:23;100681.31;;;18.69;45.25
32789;BME280;19141;48.980;8.410;2023-05-19T09:34:48;100693.72;;;18.32;45.82
32789;BME280;19141;48.980;8.410;2023-05-19T09:37:15;100679.75;;;18.87;44.38
32789;BME280;19141;48.980;8.410;2023-05-19T09:39:40;100682.66;;;18.92;45.02
32789;BME280;19141;48.980;8.410;2023-05-19T09:42:13;100679.56;;;18.82;45.51
32789;BME280;19141;48.980;8.410;2023-05-19T09:44:40;100681.19;;;18.89;45.90
32789;BME280;19141;48.980;8.410;2023-05-19T09:47:08;100685.97;;;18.87;44.60
32789;BME280;19141;48.980;8.410;2023-05-19T09:49:33;100680.63;;;18.81;45.25
32789;BME280;19141;48.980;8.410;2023-05-19T09:52:02;100673.75;;;18.85;44.94
32789;BME280;19141;48.980;8.410;2023-05-19T09:54:28;100671.75;;;18.74;45.49
32789;BME280;19141;48.980;8.410;2023-05-19T09:57:00;100671.22;;;18.45;45.93
32789;BME280;19141;48.980;8.410;2023-05-19T09:59:27;100665.53;;;18.73;44.89
32789;BME280;19141;48.980;8.410;2023-05-19T10:01:57;100668.09;;;18.48;44.12
32789;BME280;19141;48.980;8.410;2023-05-19T10:04:25;100663.47;;;18.68;44.32
32789;BME280;19141;48.980;8.410;2023-05-19T10:06:54;100662.00;;;18.73;44.03
32789;BME280;19141;48.980;8.410;2023-05-19T10:09:23;100655.97;;;18.64;44.56
32789;BME280;19141;48.980;8.410;2023-05-19T10:11:53;100662.19;;;18.64;44.01
32789;BME280;19141;48.980;8.410;2023-05-19T10:14:23;100654.81;;;18.91;44.02
32789;BME280;19141;48.980;8.410;2023-05-19T10:16:54;100654.78;;;18.66;43.41
32789;BME280;19141;48.980;8.410;2023-05-19T10:19:21;100652.63;;;18.75;43.37
32789;BME280;19141;48.980;8.410;2023-05-19T10:21:47;100650.66;;;18.51;43.83
32789;BME280;19141;48.980;8.410;2023-05-19T10:24:12;100637.53;;;18.67;42.97
32789;BME280;19141;48.980;8.410;2023-05-19T10:27:06;100651.09;;;19.42;42.61
32789;BME280;19141;48.980;8.410;2023-05-19T10:29:35;100654.81;;;19.91;41.17
32789;BME280;19141;48.980;8.410;2023-05-19T10:32:07;100650.81;;;19.94;39.84
32789;BME280;19141;48.980;8.410;2023-05-19T10:37:18;100634.69;;;19.19;41.96
32789;BME280;19141;48.980;8.410;2023-05-19T10:39:49;100650.66;;;19.70;42.62
32789;BME280;19141;48.980;8.410;2023-05-19T10:42:19;100651.34;;;19.84;41.47
32789;BME280;19141;48.980;8.410;2023-05-19T10:47:39;100652.91;;;20.28;40.60
32789;BME280;19141;48.980;8.410;2023-05-19T10:50:05;100652.94;;;20.10;40.56
32789;BME280;19141;48.980;8.410;2023-05-19T10:52:36;100654.50;;;20.18;42.27
32789;BME280;19141;48.980;8.410;2023-05-19T10:55:01;100645.56;;;20.17;40.79
32789;BME280;19141;48.980;8.410;2023-05-19T10:57:27;100650.53;;;20.02;42.49
32789;BME280;19141;48.980;8.410;2023-05-19T10:59:54;100655.84;;;20.45;40.93
32789;BME280;19141;48.980;8.410;2023-05-19T11:02:39;100644.31;;;20.68;40.63
32789;BME280;19141;48.980;8.410;2023-05-19T11:05:11;100649.47;;;20.70;40.03
32789;BME280;19141;48.980;8.410;2023-05-19T11:07:42;100645.13;;;20.02;40.79
32789;BME280;19141;48.980;8.410;2023-05-19T11:10:09;100641.06;;;20.11;41.62
32789;BME280;19141;48.980;8.410;2023-05-19T11:12:42;100638.41;;;19.43;42.56
32789;BME280;19141;48.980;8.410;2023-05-19T11:15:13;100643.09;;;19.29;42.79
32789;BME280;19141;48.980;8.410;2023-05-19T11:17:40;100634.34;;;19.59;42.39
32789;BME280;19141;48.980;8.410;2023-05-19T11:20:07;100642.66;;;19.57;42.38
32789;BME280;19141;48.980;8.410;2023-05-19T11:22:35;100629.47;;;19.67;42.70
32789;BME280;19141;48.980;8.410;2023-05-19T11:25:01;100631.09;;;19.50;43.60
32789;BME280;19141;48.980;8.410;2023-05-19T11:27:29;100630.69;;;19.71;43.81
32789;BME280;19141;48.980;8.410;2023-05-19T11:32:34;100630.28;;;19.68;44.02
32789;BME280;19141;48.980;8.410;2023-05-19T11:35:01;100623.84;;;19.69;43.81
32789;BME280;19141;48.980;8.410;2023-05-19T11:37:27;100626.13;;;19.47;43.11
32789;BME280;19141;48.980;8.410;2023-05-19T11:39:56;100632.34;;;19.47;43.54
32789;BME280;19141;48.980;8.410;2023-05-19T11:42:22;100617.59;;;19.00;44.27
32789;BME280;19141;48.980;8.410;2023-05-19T11:44:48;100624.81;;;18.75;43.94
32789;BME280;19141;48.980;8.410;2023-05-19T11:47:14;100625.19;;;18.47;45.43
32789;BME280;19141;48.980;8.410;2023-05-19T11:49:49;100635.44;;;18.69;44.36
32789;BME280;19141;48.980;8.410;2023-05-19T11:52:22;100632.41;;;18.53;44.98
32789;BME280;19141;48.980;8.410;2023-05-19T11:54:48;100631.47;;;18.34;45.91
32789;BME280;19141;48.980;8.410;2023-05-19T11:57:14;100627.34;;;18.25;46.65
32789;BME280;19141;48.980;8.410;2023-05-19T11:59:39;100629.00;;;18.26;46.07
32789;BME280;19141;48.980;8.410;2023-05-19T12:02:23;100627.19;;;18.20;46.09
32789;BME280;19141;48.980;8.410;2023-05-19T12:04:53;100630.66;;;18.27;46.46
32789;BME280;19141;48.980;8.410;2023-05-19T12:07:22;100629.38;;;18.36;46.59
32789;BME280;19141;48.980;8.410;2023-05-19T12:09:49;100630.38;;;18.41;47.24
32789;BME280;19141;48.980;8.410;2023-05-19T12:12:16;100627.00;;;18.08;47.40
32789;BME280;19141;48.980;8.410;2023-05-19T12:14:43;100632.94;;;18.23;47.70
32789;BME280;19141;48.980;8.410;2023-05-19T12:17:15;100635.72;;;18.03;47.96
32789;BME280;19141;48.980;8.410;2023-05-19T12:19:46;100643.53;;;18.18;47.41
32789;BME280;19141;48.980;8.410;2023-05-19T12:22:13;100646.53;;;17.90;49.68
32789;BME280;19141;48.980;8.410;2023-05-19T12:24:39;100646.75;;;17.88;49.32
32789;BME280;19141;48.980;8.410;2023-05-19T12:29:31;100647.19;;;17.72;49.30
32789;BME280;19141;48.980;8.410;2023-05-19T12:31:57;100650.91;;;17.64;49.85
32789;BME280;19141;48.980;8.410;2023-05-19T12:34:22;100650.53;;;17.61;49.37
32789;BME280;19141;48.980;8.410;2023-05-19T12:36:48;100654.44;;;17.58;50.63
32789;BME280;19141;48.980;8.410;2023-05-19T12:39:13;100644.94;;;17.49;49.67
32789;BME280;19141;48.980;8.410;2023-05-19T12:41:39;100646.81;;;17.22;50.13
32789;BME280;19141;48.980;8.410;2023-05-19T12:44:14;100651.56;;;17.33;51.05
32789;BME280;19141;48.980;8.410;2023-05-19T12:46:40;100651.38;;;17.22;50.63
32789;BME280;19141;48.980;8.410;2023-05-19T12:49:05;100649.50;;;17.22;52.00
32789;BME280;19141;48.980;8.410;2023-05-19T12:51:31;100650.56;;;17.28;51.25
32789;BME280;19141;48.980;8.410;2023-05-19T12:53:56;100653.22;;;17.21;50.87
32789;BME280;19141;48.980;8.410;2023-05-19T12:56:24;100639.13;;;17.26;50.34
32789;BME280;19141;48.980;8.410;2023-05-19T12:58:54;100650.34;;;17.23;51.33
32789;BME280;19141;48.980;8.410;2023-05-19T13:01:21;100649.09;;;17.25;51.34
32789;BME280;19141;48.980;8.410;2023-05-19T13:03:46;100654.25;;;17.20;51.76
32789;BME280;19141;48.980;8.410;2023-05-19T13:06:12;100647.66;;;17.23;51.23
32789;BME280;19141;48.980;8.410;2023-05-19T13:08:37;100643.69;;;17.25;51.04
32789;BME280;19141;48.980;8.410;2023-05-19T13:11:04;100637.91;;;17.22;51.05
32789;BME280;19141;48.980;8.410;2023-05-19T13:13:29;100640.78;;;17.27;53.17
32789;BME280;19141;48.980;8.410;2023-05-19T13:15:55;100635.63;;;17.25;50.59
32789;BME280;19141;48.980;8.410;2023-05-19T13:18:20;100633.97;;;17.31;51.17
32789;BME280;19141;48.980;8.410;2023-05-19T13:20:46;100631.06;;;17.32;52.53
32789;BME280;19141;48.980;8.410;2023-05-19T13:23:14;100631.69;;;17.34;50.82
32789;BME280;19141;48.980;8.410;2023-05-19T13:25:40;100626.94;;;17.36;52.39
32789;BME280;19141;48.980;8.410;2023-05-19T13:28:06;100625.66;;;17.39;50.46
32789;BME280;19141;48.980;8.410;2023-05-19T13:30:33;100623.41;;;17.43;52.71
32789;BME280;19141;48.980;8.410;2023-05-19T13:32:59;100615.72;;;17.40;51.26
32789;BME280;19141;48.980;8.410;2023-05-19T13:35:24;100625.25;;;17.75;50.37
32789;BME280;19141;48.980;8.410;2023-05-19T13:37:49;100619.63;;;17.77;50.60
32789;BME280;19141;48.980;8.410;2023-05-19T13:40:15;100614.25;;;17.63;50.74
32789;BME280;19141;48.980;8.410;2023-05-19T13:42:41;100626.25;;;17.87;49.67
32789;BME280;19141;48.980;8.410;2023-05-19T13:45:08;100622.53;;;17.69;50.19
32789;BME280;19141;48.980;8.410;2023-05-19T13:47:34;100620.84;;;17.87;50.81
32789;BME280;19141;48.980;8.410;2023-05-19T13:49:59;100615.50;;;17.74;51.24
32789;BME280;19141;48.980;8.410;2023-05-19T13:52:25;100613.81;;;17.73;51.46
32789;BME280;19141;48.980;8.410;2023-05-19T13:54:50;100611.56;;;17.77;51.73
32789;BME280;19141;48.980;8.410;2023-05-19T13:57:18;100618.34;;;17.86;50.78
32789;BME280;19141;48.980;8.410;2023-05-19T13:59:44;100609.63;;;17.97;50.30
32789;BME280;19141;48.980;8.410;2023-05-19T14:02:09;100623.34;;;17.89;50.01
32789;BME280;19141;48.980;8.410;2023-05-19T14:04:38;100612.97;;;17.86;50.44
32789;BME280;19141;48.980;8.410;2023-05-19T14:07:04;100614.81;;;17.92;50.68
32789;BME280;19141;48.980;8.410;2023-05-19T14:09:30;100610.44;;;17.98;49.97
32789;BME280;19141;48.980;8.410;2023-05-19T14:11:56;100614.66;;;17.87;51.50
32789;BME280;19141;48.980;8.410;2023-05-19T14:14:21;100602.13;;;17.99;50.62
32789;BME280;19141;48.980;8.410;2023-05-19T14:16:47;100598.63;;;17.99;50.48
32789;BME280;19141;48.980;8.410;2023-05-19T14:19:13;100598.66;;;17.92;52.58
32789;BME280;19141;48.980;8.410;2023-05-19T14:21:38;100595.13;;;17.92;50.16
32789;BME280;19141;48.980;8.410;2023-05-19T14:24:04;100581.41;;;18.06;50.17
32789;BME280;19141;48.980;8.410;2023-05-19T14:26:29;100591.75;;;18.09;50.20
32789;BME280;19141;48.980;8.410;2023-05-19T14:28:55;100590.59;;;17.85;49.94
32789;BME280;19141;48.980;8.410;2023-05-19T14:31:21;100592.38;;;18.05;49.39
32789;BME280;19141;48.980;8.410;2023-05-19T14:33:46;100589.66;;;18.11;50.46
32789;BME280;19141;48.980;8.410;2023-05-19T14:36:12;100587.41;;;18.08;52.64
32789;BME280;19141;48.980;8.410;2023-05-19T14:38:37;100582.81;;;18.15;50.51
32789;BME280;19141;48.980;8.410;2023-05-19T14:41:03;100588.72;;;18.31;50.55
32789;BME280;19141;48.980;8.410;2023-05-19T14:43:28;100587.66;;;18.00;51.05
32789;BME280;19141;48.980;8.410;2023-05-19T14:45:53;100584.69;;;18.15;50.28
32789;BME280;19141;48.980;8.410;2023-05-19T14:48:19;100588.25;;;18.02;50.13
32789;BME280;19141;48.980;8.410;2023-05-19T14:50:47;100584.50;;;18.03;49.75
32789;BME280;19141;48.980;8.410;2023-05-19T14:53:13;100584.72;;;18.02;49.98
32789;BME280;19141;48.980;8.410;2023-05-19T14:55:39;100597.25;;;17.70;52.57
32789;BME280;19141;48.980;8.410;2023-05-19T14:58:04;100581.69;;;17.78;52.84
32789;BME280;19141;48.980;8.410;2023-05-19T15:00:30;100590.59;;;17.79;51.79
32789;BME280;19141;48.980;8.410;2023-05-19T15:02:55;100590.63;;;17.72;53.25
32789;BME280;19141;48.980;8.410;2023-05-19T15:05:21;100580.03;;;17.71;51.91
32789;BME280;19141;48.980;8.410;2023-05-19T15:07:48;100584.16;;;17.93;51.52
32789;BME280;19141;48.980;8.410;2023-05-19T15:10:13;100585.16;;;17.92;50.97
32789;BME280;19141;48.980;8.410;2023-05-19T15:12:40;100587.28;;;17.83;50.21
32789;BME280;19141;48.980;8.410;2023-05-19T15:15:06;100584.00;;;17.75;50.63
32789;BME280;19141;48.980;8.410;2023-05-19T15:17:32;100584.81;;;17.69;50.71
32789;BME280;19141;48.980;8.410;2023-05-19T15:19:57;100578.13;;;17.91;50.65
32789;BME280;19141;48.980;8.410;2023-05-19T15:22:22;100577.94;;;17.86;50.65
32789;BME280;19141;48.980;8.410;2023-05-19T15:24:48;100583.16;;;17.81;50.93
32789;BME280;19141;48.980;8.410;2023-05-19T15:27:13;100585.22;;;17.79;50.47
32789;BME280;19141;48.980;8.410;2023-05-19T15:29:39;100570.31;;;17.70;50.96
32789;BME280;19141;48.980;8.410;2023-05-19T15:32:04;100576.31;;;17.78;50.86
32789;BME280;19141;48.980;8.410;2023-05-19T15:34:30;100582.53;;;17.79;51.38
32789;BME280;19141;48.980;8.410;2023-05-19T15:36:55;100585.66;;;17.69;51.26
32789;BME280;19141;48.980;8.410;2023-05-19T15:39:21;100581.31;;;17.61;51.49
32789;BME280;19141;48.980;8.410;2023-05-19T15:41:46;100577.41;;;17.51;52.00
32789;BME280;19141;48.980;8.410;2023-05-19T15:44:11;100580.28;;;17.62;53.54
32789;BME280;19141;48.980;8.410;2023-05-19T15:46:37;100588.75;;;17.73;51.57
32789;BME280;19141;48.980;8.410;2023-05-19T15:49:02;100574.06;;;17.62;51.11
32789;BME280;19141;48.980;8.410;2023-05-19T15:51:28;100578.81;;;17.53;51.83
32789;BME280;19141;48.980;8.410;2023-05-19T15:53:54;100574.28;;;17.60;51.77
32789;BME280;19141;48.980;8.410;2023-05-19T15:56:19;100555.47;;;17.21;51.60
32789;BME280;19141;48.980;8.410;2023-05-19T15:58:45;100563.75;;;17.39;51.60
32789;BME280;19141;48.980;8.410;2023-05-19T16:01:11;100560.84;;;17.27;51.89
32789;BME280;19141;48.980;8.410;2023-05-19T16:03:37;100562.50;;;17.48;51.88
32789;BME280;19141;48.980;8.410;2023-05-19T16:06:02;100570.16;;;17.45;52.40
32789;BME280;19141;48.980;8.410;2023-05-19T16:08:28;100567.06;;;17.41;52.40
32789;BME280;19141;48.980;8.410;2023-05-19T16:10:53;100571.81;;;17.39;51.95
32789;BME280;19141;48.980;8.410;2023-05-19T16:13:19;100559.84;;;17.35;53.06
32789;BME280;19141;48.980;8.410;2023-05-19T16:15:45;100557.13;;;17.35;52.38
32789;BME280;19141;48.980;8.410;2023-05-19T16:18:10;100553.44;;;17.23;53.03
32789;BME280;19141;48.980;8.410;2023-05-19T16:20:36;100544.91;;;17.26;53.25
32789;BME280;19141;48.980;8.410;2023-05-19T16:23:01;100549.44;;;17.39;52.83
32789;BME280;19141;48.980;8.410;2023-05-19T16:25:27;100543.84;;;17.40;52.07
32789;BME280;19141;48.980;8.410;2023-05-19T16:27:53;100542.84;;;17.41;51.64
32789;BME280;19141;48.980;8.410;2023-05-19T16:30:18;100543.44;;;17.50;52.15
32789;BME280;19141;48.980;8.410;2023-05-19T16:32:44;100537.59;;;17.53;52.03
32789;BME280;19141;48.980;8.410;2023-05-19T16:35:09;100543.22;;;17.45;52.05
32789;BME280;19141;48.980;8.410;2023-05-19T16:37:35;100535.16;;;17.38;53.41
32789;BME280;19141;48.980;8.410;2023-05-19T16:40:00;100528.09;;;17.50;53.86
32789;BME280;19141;48.980;8.410;2023-05-19T16:42:26;100524.34;;;17.51;52.73
32789;BME280;19141;48.980;8.410;2023-05-19T16:44:52;100524.16;;;17.46;52.69
32789;BME280;19141;48.980;8.410;2023-05-19T16:47:17;100526.25;;;17.44;52.80
32789;BME280;19141;48.980;8.410;2023-05-19T16:49:43;100521.66;;;17.58;52.37
32789;BME280;19141;48.980;8.410;2023-05-19T16:52:09;100517.09;;;17.58;52.70
32789;BME280;19141;48.980;8.410;2023-05-19T16:54:35;100524.78;;;17.48;52.89
32789;BME280;19141;48.980;8.410;2023-05-19T16:57:00;100516.72;;;17.48;52.98
32789;BME280;19141;48.980;8.410;2023-05-19T16:59:26;100521.91;;;17.36;52.82
32789;BME280;19141;48.980;8.410;2023-05-19T17:01:51;100520.47;;;17.27;53.96
32789;BME280;19141;48.980;8.410;2023-05-19T17:04:16;100518.44;;;17.16;54.25
32789;BME280;19141;48.980;8.410;2023-05-19T17:06:42;100521.50;;;17.26;55.40
32789;BME280;19141;48.980;8.410;2023-05-19T17:09:07;100519.88;;;17.12;53.91
32789;BME280;19141;48.980;8.410;2023-05-19T17:11:33;100521.94;;;17.23;54.11
32789;BME280;19141;48.980;8.410;2023-05-19T17:13:58;100520.50;;;17.21;53.75
32789;BME280;19141;48.980;8.410;2023-05-19T17:16:24;100524.66;;;17.23;53.61
32789;BME280;19141;48.980;8.410;2023-05-19T17:18:49;100525.50;;;17.11;53.67
32789;BME280;19141;48.980;8.410;2023-05-19T17:21:15;100520.50;;;17.01;54.04